Time;durP1;ratioP1;P1;durP2;ratioP2;P2;SDS_P1;SDS_P2;PMS_P1;PMS_P2;Temp;Humidity;BMP_temperature;BMP_pressure;BME280_temperature;BME280_humidity;BME280_pressure;Samples;Min_cycle;Max_cycle;Signal;HPM_P1;HPM_P2
2021/12/30 00:00:13;;;;;;;115.43;50.03;;;;;;;;;;2105019;28;20051;-50
2021/12/30 00:01:15;;;;;;;95.05;47.50;;;;;;;;;;2113222;28;20499;-48
2021/12/30 00:02:16;;;;;;;;;;;;;;;;;;2115888;28;20051;-48
2021/12/30 00:03:18;;;;;;;124.82;43.42;;;;;;;;;;2106188;28;20365;-48
2021/12/30 00:04:19;;;;;;;129.73;51.58;;;;;;;;;;2107002;28;20058;-48
2021/12/30 00:05:20;;;;;;;130.07;54.15;;;;;;;;;;2106964;28;20112;-49
2021/12/30 00:06:23;;;;;;;120.63;52.72;;;;;;;;;;2107058;28;20167;-48
2021/12/30 00:07:24;;;;;;;126.43;55.83;;;;;;;;;;2098441;28;20491;-48
2021/12/30 00:08:25;;;;;;;126.30;53.40;;;;;;;;;;2098151;28;20045;-49
2021/12/30 00:09:28;;;;;;;111.85;51.17;;;;;;;;;;2103704;28;20065;-48
2021/12/30 00:10:29;;;;;;;136.88;56.65;;;;;;;;;;2106883;28;20408;-48
2021/12/30 00:11:30;;;;;;;112.78;50.30;;;;;;;;;;2106202;28;20135;-48
2021/12/30 00:12:31;;;;;;;124.57;52.83;;;;;;;;;;2102387;28;20051;-48
2021/12/30 00:13:33;;;;;;;124.93;53.07;;;;;;;;;;2098427;28;20102;-49
2021/12/30 00:14:34;;;;;;;125.40;52.50;;;;;;;;;;2099166;28;20807;-48
2021/12/30 00:15:35;;;;;;;120.43;50.50;;;;;;;;;;2105471;28;20048;-49
2021/12/30 00:16:36;;;;;;;115.50;50.55;;;;;;;;;;2106701;28;20564;-49
2021/12/30 00:17:37;;;;;;;130.23;52.30;;;;;;;;;;2104998;28;20048;-48
2021/12/30 00:18:39;;;;;;;136.77;52.25;;;;;;;;;;2105999;28;20170;-49
2021/12/30 00:19:40;;;;;;;118.35;50.13;;;;;;;;;;2106784;28;20398;-48
2021/12/30 00:20:41;;;;;;;125.43;53.33;;;;;;;;;;2105543;28;20123;-48
2021/12/30 00:21:42;;;;;;;122.50;51.55;;;;;;;;;;2103720;28;20040;-51
2021/12/30 00:22:44;;;;;;;119.60;52.08;;;;;;;;;;2098298;28;20291;-48
2021/12/30 00:23:45;;;;;;;119.63;50.17;;;;;;;;;;2100027;28;20060;-48
2021/12/30 00:24:46;;;;;;;107.65;52.15;;;;;;;;;;2106087;28;20048;-51
2021/12/30 00:25:48;;;;;;;111.57;50.72;;;;;;;;;;2106855;28;20048;-50
2021/12/30 00:26:49;;;;;;;103.47;49.53;;;;;;;;;;2105377;28;20044;-48
2021/12/30 00:27:50;;;;;;;120.80;51.33;;;;;;;;;;2105732;28;20044;-48
2021/12/30 00:28:51;;;;;;;129.90;55.88;;;;;;;;;;2106885;28;20306;-48
2021/12/30 00:29:52;;;;;;;118.88;49.28;;;;;;;;;;2103390;28;20044;-48
2021/12/30 00:30:53;;;;;;;129.38;52.97;;;;;;;;;;2106665;28;20314;-52
2021/12/30 00:31:54;;;;;;;111.97;46.88;;;;;;;;;;2105188;28;20454;-49
2021/12/30 00:32:55;;;;;;;119.95;51.67;;;;;;;;;;2103543;28;20236;-48
2021/12/30 00:33:57;;;;;;;115.90;50.60;;;;;;;;;;2114862;28;20055;-47
2021/12/30 00:34:58;;;;;;;119.43;51.80;;;;;;;;;;2115159;28;20178;-49
2021/12/30 00:36:00;;;;;;;119.82;54.30;;;;;;;;;;2105277;28;20046;-51
2021/12/30 00:37:01;;;;;;;102.68;45.53;;;;;;;;;;2106655;28;20580;-50
2021/12/30 00:38:02;;;;;;;114.88;51.75;;;;;;;;;;2106653;28;20059;-49
2021/12/30 00:39:03;;;;;;;126.03;53.55;;;;;;;;;;2106150;28;20135;-48
2021/12/30 00:40:05;;;;;;;135.48;52.90;;;;;;;;;;2098450;28;20049;-50
2021/12/30 00:41:07;;;;;;;122.40;54.47;;;;;;;;;;2098313;28;20044;-48
2021/12/30 00:42:08;;;;;;;121.03;50.58;;;;;;;;;;2104779;28;20337;-48
2021/12/30 00:43:09;;;;;;;125.28;52.80;;;;;;;;;;2106592;28;20557;-48
2021/12/30 00:44:10;;;;;;;105.20;44.97;;;;;;;;;;2106266;28;20117;-48
2021/12/30 00:45:11;;;;;;;116.72;49.63;;;;;;;;;;2105329;28;20159;-48
2021/12/30 00:46:12;;;;;;;128.87;50.50;;;;;;;;;;2098346;28;20051;-48
2021/12/30 00:47:13;;;;;;;94.40;47.13;;;;;;;;;;2101680;28;20050;-48
2021/12/30 00:48:15;;;;;;;123.15;53.95;;;;;;;;;;2105370;28;20040;-47
2021/12/30 00:49:16;;;;;;;98.70;43.65;;;;;;;;;;2098199;28;20183;-48
2021/12/30 00:50:18;;;;;;;125.22;52.80;;;;;;;;;;2099315;28;20197;-49
2021/12/30 00:51:19;;;;;;;124.03;57.22;;;;;;;;;;2104226;28;20083;-49
2021/12/30 00:52:20;;;;;;;122.37;52.40;;;;;;;;;;2098123;28;20048;-48
2021/12/30 00:53:21;;;;;;;123.68;52.17;;;;;;;;;;2099939;28;20073;-49
2021/12/30 00:54:23;;;;;;;124.38;52.40;;;;;;;;;;2106252;28;20044;-48
2021/12/30 00:55:26;;;;;;;122.05;51.75;;;;;;;;;;2106492;28;20519;-49
2021/12/30 00:56:26;;;;;;;132.57;55.38;;;;;;;;;;2106404;28;20092;-49
2021/12/30 00:57:28;;;;;;;108.63;46.33;;;;;;;;;;2101262;28;20048;-48
2021/12/30 00:58:28;;;;;;;130.68;52.97;;;;;;;;;;2098247;28;20066;-48
2021/12/30 00:59:30;;;;;;;114.00;51.13;;;;;;;;;;2099944;28;20478;-48
2021/12/30 01:00:31;;;;;;;125.53;51.55;;;;;;;;;;2105938;28;20051;-48
2021/12/30 01:01:33;;;;;;;128.27;55.25;;;;;;;;;;2105859;28;20094;-49
2021/12/30 01:02:34;;;;;;;124.25;51.28;;;;;;;;;;2103955;28;20126;-49
2021/12/30 01:03:35;;;;;;;125.30;51.63;;;;;;;;;;2106309;28;20074;-48
2021/12/30 01:04:37;;;;;;;122.00;52.83;;;;;;;;;;2106591;28;20048;-48
2021/12/30 01:05:38;;;;;;;118.95;51.85;;;;;;;;;;2105275;28;20183;-49
2021/12/30 01:06:39;;;;;;;115.43;49.17;;;;;;;;;;2114944;28;20048;-46
2021/12/30 01:07:40;;;;;;;122.93;52.03;;;;;;;;;;2114954;28;20047;-48
2021/12/30 01:08:41;;;;;;;135.80;55.88;;;;;;;;;;2107056;28;20092;-46
2021/12/30 01:09:42;;;;;;;131.40;53.22;;;;;;;;;;2098099;28;20098;-47
2021/12/30 01:10:44;;;;;;;110.57;49.95;;;;;;;;;;2097750;28;20131;-51
2021/12/30 01:11:45;;;;;;;112.47;47.88;;;;;;;;;;2104406;28;20512;-48
2021/12/30 01:12:46;;;;;;;120.63;52.17;;;;;;;;;;2106369;28;20443;-47
2021/12/30 01:13:55;;;;;;;120.30;51.03;;;;;;;;;;2106083;28;20131;-47
2021/12/30 01:14:56;;;;;;;131.05;51.03;;;;;;;;;;2101771;28;20045;-48
2021/12/30 01:16:00;;;;;;;126.00;52.23;;;;;;;;;;2098087;28;20072;-47
2021/12/30 01:17:13;;;;;;;133.38;57.20;;;;;;;;;;2099281;28;20047;-47
2021/12/30 01:18:30;;;;;;;113.20;50.55;;;;;;;;;;2100676;28;20052;-48
2021/12/30 01:19:43;;;;;;;105.72;48.28;;;;;;;;;;2097743;28;20052;-47
2021/12/30 01:20:44;;;;;;;131.43;53.60;;;;;;;;;;2104986;28;20135;-47
2021/12/30 01:21:46;;;;;;;128.43;52.75;;;;;;;;;;2106235;28;20050;-48
2021/12/30 01:22:48;;;;;;;124.22;56.58;;;;;;;;;;2105554;28;20040;-48
2021/12/30 01:23:49;;;;;;;126.15;55.50;;;;;;;;;;2104963;28;20127;-48
2021/12/30 01:24:50;;;;;;;125.43;50.67;;;;;;;;;;2098200;28;20059;-46
2021/12/30 01:25:52;;;;;;;133.05;52.78;;;;;;;;;;2098506;28;20101;-47
2021/12/30 01:26:53;;;;;;;117.55;51.45;;;;;;;;;;2104804;28;20513;-46
2021/12/30 01:27:54;;;;;;;122.40;50.72;;;;;;;;;;2098060;28;20057;-49
2021/12/30 01:28:55;;;;;;;112.13;45.43;;;;;;;;;;2099988;28;20527;-46
2021/12/30 01:29:56;;;;;;;136.73;56.75;;;;;;;;;;2103245;28;20040;-47
2021/12/30 01:30:58;;;;;;;104.78;44.70;;;;;;;;;;2098010;28;20503;-48
2021/12/30 01:32:00;;;;;;;129.27;52.60;;;;;;;;;;2098648;28;20048;-46
2021/12/30 01:33:01;;;;;;;121.60;51.07;;;;;;;;;;2112841;28;20039;-49
2021/12/30 01:34:02;;;;;;;123.05;51.63;;;;;;;;;;2114863;28;20051;-47
2021/12/30 01:35:04;;;;;;;136.82;49.97;;;;;;;;;;2108114;28;20052;-47
2021/12/30 01:36:06;;;;;;;112.57;50.45;;;;;;;;;;2105459;28;20132;-47
2021/12/30 01:37:07;;;;;;;109.60;49.65;;;;;;;;;;2106397;28;20465;-46
2021/12/30 01:38:12;;;;;;;116.13;48.60;;;;;;;;;;2104059;28;20559;-49
2021/12/30 01:39:13;;;;;;;114.53;49.63;;;;;;;;;;2106184;28;20075;-49
2021/12/30 01:40:16;;;;;;;112.63;45.42;;;;;;;;;;2106371;28;20191;-47
2021/12/30 01:41:17;;;;;;;112.53;47.42;;;;;;;;;;2103956;28;20057;-47
2021/12/30 01:42:19;;;;;;;118.10;46.47;;;;;;;;;;2106184;28;20086;-48
2021/12/30 01:43:19;;;;;;;120.38;48.03;;;;;;;;;;2106048;28;20387;-50
2021/12/30 01:44:21;;;;;;;130.60;49.20;;;;;;;;;;2105925;28;20546;-48
2021/12/30 01:45:22;;;;;;;123.47;54.33;;;;;;;;;;2097883;28;20055;-49
2021/12/30 01:46:23;;;;;;;115.28;45.17;;;;;;;;;;2097873;28;20127;-48
2021/12/30 01:47:25;;;;;;;118.00;45.80;;;;;;;;;;2104102;28;20409;-47
2021/12/30 01:48:26;;;;;;;120.50;47.60;;;;;;;;;;2106026;28;20491;-50
2021/12/30 01:49:27;;;;;;;117.63;47.50;;;;;;;;;;2105786;28;20050;-47
2021/12/30 01:50:28;;;;;;;109.32;44.55;;;;;;;;;;2108629;28;20504;-47
2021/12/30 01:51:30;;;;;;;113.40;46.75;;;;;;;;;;2114628;28;20200;-48
2021/12/30 01:52:31;;;;;;;120.15;48.83;;;;;;;;;;2110916;28;20126;-47
2021/12/30 01:53:33;;;;;;;112.90;45.08;;;;;;;;;;2105373;28;20322;-47
2021/12/30 01:54:34;;;;;;;120.35;48.33;;;;;;;;;;2106215;28;20051;-47
2021/12/30 01:55:37;;;;;;;121.45;47.85;;;;;;;;;;2104553;28;20461;-48
2021/12/30 01:56:38;;;;;;;119.28;48.55;;;;;;;;;;2104756;28;20130;-48
2021/12/30 01:57:39;;;;;;;110.35;45.40;;;;;;;;;;2106092;28;20127;-47
2021/12/30 01:58:40;;;;;;;115.45;47.25;;;;;;;;;;2103938;28;20051;-46
2021/12/30 01:59:41;;;;;;;125.05;50.80;;;;;;;;;;2100148;28;20143;-47
2021/12/30 02:00:44;;;;;;;130.23;49.40;;;;;;;;;;2097881;28;20045;-47
2021/12/30 02:01:45;;;;;;;127.72;51.90;;;;;;;;;;2100130;28;20452;-46
2021/12/30 02:02:47;;;;;;;90.45;44.22;;;;;;;;;;2112994;28;20054;-47
2021/12/30 02:03:49;;;;;;;118.40;47.88;;;;;;;;;;2114434;28;20108;-47
2021/12/30 02:04:51;;;;;;;109.53;45.28;;;;;;;;;;2109136;28;20480;-48
2021/12/30 02:05:53;;;;;;;123.57;52.92;;;;;;;;;;2098166;28;20481;-49
2021/12/30 02:06:55;;;;;;;115.05;47.40;;;;;;;;;;2097586;28;20218;-50
2021/12/30 02:07:56;;;;;;;;;;;;;;;;;;2102880;28;20102;-47
2021/12/30 02:08:56;;;;;;;102.28;38.15;;;;;;;;;;2106027;28;20369;-46
2021/12/30 02:10:01;;;;;;;114.45;46.80;;;;;;;;;;2106135;28;20485;-49
2021/12/30 02:11:02;;;;;;;111.47;45.55;;;;;;;;;;2105775;28;20127;-49
2021/12/30 02:12:04;;;;;;;125.93;47.37;;;;;;;;;;2114439;28;20059;-47
2021/12/30 02:13:05;;;;;;;94.07;42.05;;;;;;;;;;2113259;28;20636;-47
2021/12/30 02:14:06;;;;;;;99.07;38.97;;;;;;;;;;2107250;28;20036;-47
2021/12/30 02:15:09;;;;;;;115.82;47.53;;;;;;;;;;2114358;28;20480;-48
2021/12/30 02:16:10;;;;;;;105.47;43.85;;;;;;;;;;2112397;28;20110;-48
2021/12/30 02:17:11;;;;;;;120.57;47.35;;;;;;;;;;2104501;28;20044;-47
2021/12/30 02:18:12;;;;;;;117.45;46.20;;;;;;;;;;2106136;28;20048;-48
2021/12/30 02:19:13;;;;;;;114.82;48.33;;;;;;;;;;2104592;28;20131;-47
2021/12/30 02:20:29;;;;;;;111.50;44.50;;;;;;;;;;2105096;28;20150;-48
2021/12/30 02:21:31;;;;;;;117.00;48.15;;;;;;;;;;2105060;28;20127;-47
2021/12/30 02:22:32;;;;;;;113.00;45.00;;;;;;;;;;2103393;28;20071;-48
2021/12/30 02:23:33;;;;;;;118.75;47.97;;;;;;;;;;2112995;28;20047;-49
2021/12/30 02:24:35;;;;;;;105.13;41.78;;;;;;;;;;2114399;28;20078;-47
2021/12/30 02:25:36;;;;;;;109.22;45.83;;;;;;;;;;2105974;28;20131;-47
2021/12/30 02:26:37;;;;;;;106.25;39.92;;;;;;;;;;2105691;28;20577;-48
2021/12/30 02:27:38;;;;;;;116.35;45.20;;;;;;;;;;2106032;28;20058;-48
2021/12/30 02:28:40;;;;;;;108.83;45.40;;;;;;;;;;2106819;28;20456;-47
2021/12/30 02:29:40;;;;;;;;;;;;;;;;;;2098139;28;20127;-47
2021/12/30 02:30:42;;;;;;;111.47;36.17;;;;;;;;;;2097471;28;19920;-48
2021/12/30 02:31:43;;;;;;;106.13;40.75;;;;;;;;;;2103798;28;20096;-49
2021/12/30 02:32:44;;;;;;;93.20;37.63;;;;;;;;;;2097714;28;20497;-50
2021/12/30 02:33:46;;;;;;;116.28;45.53;;;;;;;;;;2097322;28;20045;-46
2021/12/30 02:34:47;;;;;;;;;;;;;;;;;;2105090;28;20134;-47
2021/12/30 02:35:48;;;;;;;103.43;35.00;;;;;;;;;;2105811;28;19927;-48
2021/12/30 02:36:50;;;;;;;115.55;44.92;;;;;;;;;;2105307;28;20044;-48
2021/12/30 02:37:51;;;;;;;123.47;45.85;;;;;;;;;;2103857;28;20511;-48
2021/12/30 02:38:52;;;;;;;119.05;43.95;;;;;;;;;;2106036;28;20062;-48
2021/12/30 02:39:54;;;;;;;89.22;39.08;;;;;;;;;;2105092;28;20131;-48
2021/12/30 02:40:56;;;;;;;116.43;43.50;;;;;;;;;;2107668;28;20131;-48
2021/12/30 02:41:57;;;;;;;125.95;45.72;;;;;;;;;;2105763;28;20125;-49
2021/12/30 02:42:58;;;;;;;115.88;44.25;;;;;;;;;;2104327;28;20123;-48
2021/12/30 02:44:00;;;;;;;134.00;49.58;;;;;;;;;;2106486;28;20048;-47
2021/12/30 02:45:01;;;;;;;130.88;50.08;;;;;;;;;;2105876;28;20043;-47
2021/12/30 02:46:03;;;;;;;119.03;47.63;;;;;;;;;;2104623;28;20051;-49
2021/12/30 02:47:04;;;;;;;101.70;42.55;;;;;;;;;;2104373;28;20276;-47
2021/12/30 02:48:11;;;;;;;128.07;49.42;;;;;;;;;;2105834;28;20079;-46
2021/12/30 02:49:12;;;;;;;131.15;50.70;;;;;;;;;;2104646;28;20132;-48
2021/12/30 02:50:13;;;;;;;131.95;46.25;;;;;;;;;;2105679;28;20043;-47
2021/12/30 02:51:14;;;;;;;134.80;49.70;;;;;;;;;;2105773;28;20120;-48
2021/12/30 02:52:15;;;;;;;145.48;50.35;;;;;;;;;;2102727;28;20519;-49
2021/12/30 02:53:16;;;;;;;133.45;52.03;;;;;;;;;;2113631;28;20123;-48
2021/12/30 02:54:17;;;;;;;131.02;49.90;;;;;;;;;;2114216;28;20071;-48
2021/12/30 02:55:18;;;;;;;114.53;46.70;;;;;;;;;;2105492;28;20104;-47
2021/12/30 02:56:20;;;;;;;122.85;45.60;;;;;;;;;;2105596;28;20101;-48
2021/12/30 02:57:21;;;;;;;;;;;;;;;;;;2106317;28;20040;-50
2021/12/30 02:58:23;;;;;;;137.05;44.83;;;;;;;;;;2102314;28;20293;-47
2021/12/30 02:59:24;;;;;;;136.77;48.10;;;;;;;;;;2097535;28;20049;-48
2021/12/30 03:00:27;;;;;;;138.30;52.67;;;;;;;;;;2098073;28;20485;-48
2021/12/30 03:01:29;;;;;;;128.10;49.13;;;;;;;;;;2109074;28;20514;-47
2021/12/30 03:02:30;;;;;;;107.18;43.88;;;;;;;;;;2114313;28;20048;-48
2021/12/30 03:03:31;;;;;;;132.63;50.20;;;;;;;;;;2109703;28;20115;-48
2021/12/30 03:04:32;;;;;;;141.27;50.65;;;;;;;;;;2105036;28;20131;-49
2021/12/30 03:05:33;;;;;;;148.87;50.83;;;;;;;;;;2105878;28;20409;-48
2021/12/30 03:06:34;;;;;;;154.45;53.00;;;;;;;;;;2103555;28;20481;-47
2021/12/30 03:07:36;;;;;;;93.90;39.53;;;;;;;;;;2100279;28;20044;-49
2021/12/30 03:08:38;;;;;;;124.15;46.95;;;;;;;;;;2097342;28;20461;-47
2021/12/30 03:09:39;;;;;;;131.55;48.30;;;;;;;;;;2100635;28;20044;-50
2021/12/30 03:10:40;;;;;;;125.07;45.75;;;;;;;;;;2104283;28;20127;-49
2021/12/30 03:11:41;;;;;;;121.25;48.47;;;;;;;;;;2105720;28;20051;-47
2021/12/30 03:12:42;;;;;;;113.65;44.78;;;;;;;;;;2104346;28;20044;-48
2021/12/30 03:13:44;;;;;;;124.03;45.33;;;;;;;;;;2104901;28;20054;-49
2021/12/30 03:14:45;;;;;;;126.55;48.30;;;;;;;;;;2105862;28;20044;-48
2021/12/30 03:15:47;;;;;;;108.93;42.67;;;;;;;;;;2103430;28;20197;-48
2021/12/30 03:16:48;;;;;;;120.88;47.95;;;;;;;;;;2106691;28;20067;-49
2021/12/30 03:17:49;;;;;;;124.13;45.20;;;;;;;;;;2107348;28;20044;-48
2021/12/30 03:18:50;;;;;;;125.53;47.90;;;;;;;;;;2108150;28;20126;-47
2021/12/30 03:19:53;;;;;;;131.00;48.05;;;;;;;;;;2098900;28;20132;-49
2021/12/30 03:20:54;;;;;;;127.35;50.60;;;;;;;;;;2098691;28;20571;-48
2021/12/30 03:21:56;;;;;;;128.30;48.43;;;;;;;;;;2102954;28;20089;-49
2021/12/30 03:22:58;;;;;;;100.47;40.67;;;;;;;;;;2107129;28;20051;-47
2021/12/30 03:24:01;;;;;;;106.00;45.05;;;;;;;;;;2106717;28;20048;-51
2021/12/30 03:25:02;;;;;;;97.75;38.92;;;;;;;;;;2106232;28;20130;-47
2021/12/30 03:26:04;;;;;;;116.03;45.72;;;;;;;;;;2107017;28;20126;-49
2021/12/30 03:27:06;;;;;;;121.07;47.53;;;;;;;;;;2106589;28;20619;-49
2021/12/30 03:28:07;;;;;;;125.30;48.97;;;;;;;;;;2106534;28;20059;-47
2021/12/30 03:29:08;;;;;;;98.80;40.92;;;;;;;;;;2107290;28;20443;-47
2021/12/30 03:30:11;;;;;;;110.38;44.40;;;;;;;;;;2105688;28;20170;-48
2021/12/30 03:31:13;;;;;;;124.45;46.20;;;;;;;;;;2109577;28;20130;-48
2021/12/30 03:32:14;;;;;;;88.93;38.38;;;;;;;;;;2108546;28;20531;-48
2021/12/30 03:33:15;;;;;;;109.57;43.47;;;;;;;;;;2105822;28;20047;-47
2021/12/30 03:34:16;;;;;;;109.68;40.13;;;;;;;;;;2105700;28;20040;-47
2021/12/30 03:35:18;;;;;;;109.13;45.23;;;;;;;;;;2107161;28;20416;-47
2021/12/30 03:36:19;;;;;;;118.60;45.50;;;;;;;;;;2104460;28;20044;-49
2021/12/30 03:37:21;;;;;;;124.40;48.25;;;;;;;;;;2113532;28;20515;-45
2021/12/30 03:38:22;;;;;;;;;;;;;;;;;;2115980;28;20579;-46
2021/12/30 03:39:24;;;;;;;94.55;34.35;;;;;;;;;;2109289;28;19920;-46
2021/12/30 03:40:25;;;;;;;114.28;47.67;;;;;;;;;;2106251;28;20056;-47
2021/12/30 03:41:28;;;;;;;135.70;48.73;;;;;;;;;;2107008;28;20098;-50
2021/12/30 03:42:29;;;;;;;136.88;51.72;;;;;;;;;;2104673;28;20500;-48
2021/12/30 03:43:30;;;;;;;122.97;49.30;;;;;;;;;;2106854;28;20054;-48
2021/12/30 03:44:31;;;;;;;126.18;48.35;;;;;;;;;;2107120;28;20052;-47
2021/12/30 03:45:32;;;;;;;128.10;47.27;;;;;;;;;;2107707;28;20584;-48
2021/12/30 03:46:33;;;;;;;136.70;52.75;;;;;;;;;;2098559;28;20076;-48
2021/12/30 03:47:37;;;;;;;141.03;52.43;;;;;;;;;;2098584;28;20049;-47
2021/12/30 03:48:42;;;;;;;131.00;48.25;;;;;;;;;;2103872;28;20553;-48
2021/12/30 03:49:45;;;;;;;139.13;50.65;;;;;;;;;;2107066;28;20052;-48
2021/12/30 03:50:48;;;;;;;135.63;51.17;;;;;;;;;;2106532;28;20055;-48
2021/12/30 03:51:51;;;;;;;94.18;40.78;;;;;;;;;;2105483;28;20519;-51
2021/12/30 03:52:54;;;;;;;140.40;50.40;;;;;;;;;;2098619;28;20194;-47
2021/12/30 03:53:56;;;;;;;116.72;48.53;;;;;;;;;;2099318;28;20133;-47
2021/12/30 03:54:58;;;;;;;141.55;52.30;;;;;;;;;;2109699;28;20067;-47
2021/12/30 03:55:59;;;;;;;120.65;47.58;;;;;;;;;;2115384;28;20714;-47
2021/12/30 03:57:00;;;;;;;120.85;45.25;;;;;;;;;;2109923;28;20044;-48
2021/12/30 03:58:01;;;;;;;137.38;49.67;;;;;;;;;;2112541;28;20641;-47
2021/12/30 03:59:04;;;;;;;109.43;45.00;;;;;;;;;;2115412;28;20039;-47
2021/12/30 04:00:05;;;;;;;97.72;41.88;;;;;;;;;;2110851;28;20147;-48
2021/12/30 04:01:07;;;;;;;118.93;44.55;;;;;;;;;;2101953;28;20123;-48
2021/12/30 04:02:08;;;;;;;108.55;43.67;;;;;;;;;;2098607;28;20048;-48
2021/12/30 04:03:09;;;;;;;120.20;43.63;;;;;;;;;;2102395;28;20051;-47
2021/12/30 04:04:10;;;;;;;110.32;44.67;;;;;;;;;;2099522;28;20132;-48
2021/12/30 04:05:11;;;;;;;101.40;39.43;;;;;;;;;;2098481;28;20052;-48
2021/12/30 04:06:12;;;;;;;99.72;40.60;;;;;;;;;;2102171;28;20072;-46
2021/12/30 04:07:13;;;;;;;87.65;36.80;;;;;;;;;;2106976;28;20051;-46
2021/12/30 04:08:14;;;;;;;118.15;42.25;;;;;;;;;;2106439;28;20178;-47
2021/12/30 04:09:15;;;;;;;116.53;42.40;;;;;;;;;;2104930;28;20451;-48
2021/12/30 04:10:20;;;;;;;110.78;41.85;;;;;;;;;;2106755;28;20173;-47
2021/12/30 04:11:22;;;;;;;107.32;41.75;;;;;;;;;;2106062;28;20135;-49
2021/12/30 04:12:23;;;;;;;;;;;;;;;;;;2105996;28;20089;-48
2021/12/30 04:13:25;;;;;;;91.40;30.30;;;;;;;;;;2098458;28;19999;-47
2021/12/30 04:14:27;;;;;;;76.38;30.23;;;;;;;;;;2099015;28;20093;-47
2021/12/30 04:15:28;;;;;;;100.20;40.45;;;;;;;;;;2102154;28;20557;-48
2021/12/30 04:16:29;;;;;;;119.05;42.08;;;;;;;;;;2098468;28;20140;-50
2021/12/30 04:17:31;;;;;;;100.68;40.67;;;;;;;;;;2099998;28;20048;-47
2021/12/30 04:18:32;;;;;;;;;;;;;;;;;;2100963;28;20052;-47
2021/12/30 04:19:33;;;;;;;76.63;31.40;;;;;;;;;;2098332;28;20335;-49
2021/12/30 04:20:34;;;;;;;92.93;39.90;;;;;;;;;;2101835;28;20056;-48
2021/12/30 04:21:35;;;;;;;81.03;31.97;;;;;;;;;;2105203;28;20098;-48
2021/12/30 04:22:37;;;;;;;89.10;38.38;;;;;;;;;;2106969;28;20040;-47
2021/12/30 04:23:38;;;;;;;102.05;39.83;;;;;;;;;;2105348;28;20044;-47
2021/12/30 04:24:39;;;;;;;106.70;44.13;;;;;;;;;;2105765;28;20503;-48
2021/12/30 04:25:40;;;;;;;101.05;40.88;;;;;;;;;;2106750;28;20059;-48
2021/12/30 04:26:41;;;;;;;98.32;43.63;;;;;;;;;;2107797;28;20138;-47
2021/12/30 04:27:43;;;;;;;104.90;40.80;;;;;;;;;;2105516;28;20477;-47
2021/12/30 04:28:44;;;;;;;92.65;36.92;;;;;;;;;;2106744;28;20530;-47
2021/12/30 04:29:45;;;;;;;93.43;35.95;;;;;;;;;;2104240;28;20138;-47
2021/12/30 04:30:46;;;;;;;96.97;39.42;;;;;;;;;;2106655;28;20542;-47
2021/12/30 04:31:47;;;;;;;91.72;36.78;;;;;;;;;;2104859;28;20102;-47
2021/12/30 04:32:48;;;;;;;88.15;34.35;;;;;;;;;;2106882;28;20039;-47
2021/12/30 04:33:49;;;;;;;93.13;35.97;;;;;;;;;;2098399;28;20394;-48
2021/12/30 04:34:50;;;;;;;79.03;34.22;;;;;;;;;;2098350;28;20132;-47
2021/12/30 04:35:56;;;;;;;92.90;38.00;;;;;;;;;;2105021;28;20403;-47
2021/12/30 04:36:58;;;;;;;83.38;31.23;;;;;;;;;;2115065;28;20050;-46
2021/12/30 04:37:59;;;;;;;85.78;34.53;;;;;;;;;;2113514;28;20047;-47
2021/12/30 04:39:00;;;;;;;90.07;36.50;;;;;;;;;;2105867;28;20105;-47
2021/12/30 04:40:02;;;;;;;110.13;40.78;;;;;;;;;;2106670;28;20481;-49
2021/12/30 04:41:04;;;;;;;77.47;36.75;;;;;;;;;;2105657;28;20127;-48
2021/12/30 04:42:05;;;;;;;81.75;35.58;;;;;;;;;;2105528;28;20096;-48
2021/12/30 04:43:06;;;;;;;80.00;34.28;;;;;;;;;;2106673;28;20050;-48
2021/12/30 04:44:07;;;;;;;99.65;38.22;;;;;;;;;;2104519;28;20404;-48
2021/12/30 04:45:09;;;;;;;89.45;35.67;;;;;;;;;;2101937;28;20048;-49
2021/12/30 04:46:10;;;;;;;;;;;;;;;;;;2098591;28;20048;-49
2021/12/30 04:47:11;;;;;;;85.20;27.52;;;;;;;;;;2100967;28;20349;-48
2021/12/30 04:48:12;;;;;;;94.18;34.88;;;;;;;;;;2105134;28;20469;-48
2021/12/30 04:49:13;;;;;;;88.20;37.53;;;;;;;;;;2106652;28;20040;-50
2021/12/30 04:50:14;;;;;;;93.70;38.38;;;;;;;;;;2104434;28;20110;-49
2021/12/30 04:51:16;;;;;;;90.60;33.35;;;;;;;;;;2113065;28;20500;-48
2021/12/30 04:52:17;;;;;;;87.28;34.10;;;;;;;;;;2114921;28;20054;-47
2021/12/30 04:53:18;;;;;;;98.30;36.53;;;;;;;;;;2109945;28;20256;-49
2021/12/30 04:54:20;;;;;;;104.70;38.22;;;;;;;;;;2100396;28;20123;-51
2021/12/30 04:55:21;;;;;;;99.70;39.20;;;;;;;;;;2098154;28;20127;-47
2021/12/30 04:56:22;;;;;;;101.68;39.65;;;;;;;;;;2101915;28;20071;-48
2021/12/30 04:57:23;;;;;;;105.28;41.88;;;;;;;;;;2105563;28;20126;-48
2021/12/30 04:58:24;;;;;;;91.35;36.22;;;;;;;;;;2106552;28;20056;-48
2021/12/30 04:59:25;;;;;;;89.47;37.63;;;;;;;;;;2104245;28;20490;-47
2021/12/30 05:00:26;;;;;;;85.75;39.53;;;;;;;;;;2106503;28;20071;-47
2021/12/30 05:01:27;;;;;;;93.47;39.13;;;;;;;;;;2106526;28;20052;-48
2021/12/30 05:02:40;;;;;;;106.32;41.88;;;;;;;;;;2104070;28;20059;-47
2021/12/30 05:03:41;;;;;;;88.00;34.55;;;;;;;;;;2106681;28;20040;-47
2021/12/30 05:04:42;;;;;;;95.07;39.47;;;;;;;;;;2105837;28;20457;-48
2021/12/30 05:05:44;;;;;;;103.25;44.58;;;;;;;;;;2104406;28;20077;-47
2021/12/30 05:06:45;;;;;;;112.43;44.28;;;;;;;;;;2106270;28;20051;-48
2021/12/30 05:07:46;;;;;;;96.90;42.40;;;;;;;;;;2105277;28;20123;-47
2021/12/30 05:08:47;;;;;;;103.30;41.33;;;;;;;;;;2105404;28;20180;-47
2021/12/30 05:09:48;;;;;;;106.88;42.03;;;;;;;;;;2106534;28;20052;-51
2021/12/30 05:10:50;;;;;;;108.37;42.40;;;;;;;;;;2104713;28;20048;-48
2021/12/30 05:11:52;;;;;;;102.82;43.00;;;;;;;;;;2104562;28;20132;-49
2021/12/30 05:12:53;;;;;;;106.53;40.63;;;;;;;;;;2098132;28;20063;-47
2021/12/30 05:13:54;;;;;;;103.47;41.83;;;;;;;;;;2100616;28;20382;-48
2021/12/30 05:14:55;;;;;;;104.60;43.28;;;;;;;;;;2100158;28;20139;-48
2021/12/30 05:15:56;;;;;;;98.50;43.30;;;;;;;;;;2098043;28;20084;-47
2021/12/30 05:17:02;;;;;;;80.03;34.35;;;;;;;;;;2101275;28;20405;-48
2021/12/30 05:18:04;;;;;;;76.85;35.28;;;;;;;;;;2106190;28;20048;-49
2021/12/30 05:19:05;;;;;;;94.20;35.55;;;;;;;;;;2106499;28;20150;-47
2021/12/30 05:20:07;;;;;;;110.78;40.15;;;;;;;;;;2104153;28;20127;-48
2021/12/30 05:21:09;;;;;;;108.25;40.25;;;;;;;;;;2105302;28;20560;-47
2021/12/30 05:22:10;;;;;;;87.25;36.72;;;;;;;;;;2106356;28;20123;-49
2021/12/30 05:23:11;;;;;;;106.30;43.80;;;;;;;;;;2104235;28;20040;-47
2021/12/30 05:24:12;;;;;;;113.82;45.22;;;;;;;;;;2097974;28;20504;-48
2021/12/30 05:25:14;;;;;;;133.47;48.20;;;;;;;;;;2098004;28;20048;-48
2021/12/30 05:26:16;;;;;;;126.03;48.22;;;;;;;;;;2105785;28;20130;-48
2021/12/30 05:27:19;;;;;;;108.85;41.60;;;;;;;;;;2098147;28;20119;-48
2021/12/30 05:28:20;;;;;;;105.95;40.88;;;;;;;;;;2100884;28;20150;-48
2021/12/30 05:29:21;;;;;;;119.72;43.75;;;;;;;;;;2105707;28;20485;-49
2021/12/30 05:30:23;;;;;;;109.85;39.03;;;;;;;;;;2098094;28;20154;-47
2021/12/30 05:31:25;;;;;;;104.15;39.92;;;;;;;;;;2098436;28;20425;-48
2021/12/30 05:32:26;;;;;;;127.28;44.78;;;;;;;;;;2102750;28;20044;-45
2021/12/30 05:33:27;;;;;;;109.97;42.80;;;;;;;;;;2097946;28;20054;-44
2021/12/30 05:34:28;;;;;;;78.88;33.53;;;;;;;;;;2098840;28;20125;-44
2021/12/30 05:35:28;;;;;;;88.32;37.42;;;;;;;;;;2105004;28;20451;-44
2021/12/30 05:36:30;;;;;;;110.78;41.72;;;;;;;;;;2097983;28;20049;-45
2021/12/30 05:37:30;;;;;;;106.68;41.60;;;;;;;;;;2098584;28;20135;-44
2021/12/30 05:38:32;;;;;;;104.45;43.30;;;;;;;;;;2106775;28;20477;-45
2021/12/30 05:39:35;;;;;;;111.38;42.40;;;;;;;;;;2105796;28;20051;-44
2021/12/30 05:40:37;;;;;;;105.53;42.90;;;;;;;;;;2104038;28;20040;-45
2021/12/30 05:41:37;;;;;;;82.30;31.33;;;;;;;;;;2106176;28;20048;-46
2021/12/30 05:42:39;;;;;;;102.70;40.63;;;;;;;;;;2106217;28;20101;-44
2021/12/30 05:43:40;;;;;;;113.40;40.85;;;;;;;;;;2103899;28;20501;-44
2021/12/30 05:44:41;;;;;;;111.18;42.15;;;;;;;;;;2106094;28;20060;-44
2021/12/30 05:45:42;;;;;;;109.72;40.35;;;;;;;;;;2106244;28;20487;-45
2021/12/30 05:46:44;;;;;;;105.30;39.90;;;;;;;;;;2103735;28;20055;-46
2021/12/30 05:47:46;;;;;;;112.15;41.33;;;;;;;;;;2106330;28;20097;-45
2021/12/30 05:48:47;;;;;;;112.75;44.42;;;;;;;;;;2106202;28;20048;-43
2021/12/30 05:49:48;;;;;;;113.38;44.25;;;;;;;;;;2104648;28;20043;-44
2021/12/30 05:50:50;;;;;;;114.82;43.50;;;;;;;;;;2106317;28;20131;-44
2021/12/30 05:51:50;;;;;;;116.63;44.63;;;;;;;;;;2104334;28;20135;-45
2021/12/30 05:52:52;;;;;;;121.85;45.90;;;;;;;;;;2104079;28;20541;-45
2021/12/30 05:53:53;;;;;;;109.82;43.90;;;;;;;;;;2097731;28;20127;-45
2021/12/30 05:54:54;;;;;;;99.93;41.30;;;;;;;;;;2099432;28;20073;-43
2021/12/30 05:55:55;;;;;;;95.10;35.92;;;;;;;;;;2112222;28;20130;-46